This demonstration page uses our WeatherBlox Daily Observations layout. Learn more.

39.92423, -83.80882

Hourly Observations for July 29, 2018

Temp ( °F °C ) Dew Point ( °F °C ) Humidity (%) Winds ( mph kmh ) Pressure ( in mb ) Visibility ( mi km ) Precip ( " mm )
1:56 am 01:56 Clear 60 15.6 59 15 96 96 SE 3 6 30.14 1021 10 16.0934 0 0
4:56 am 04:56 Clear 58 14.4 58 14.4 100 100 Calm 30.14 1021 10 16.0934 0 0
6:56 am 06:56 Sunny 59 15 59 15 100 100 Calm 30.15 1021 10 16.0934 0 0
7:56 am 07:56 Sunny 61 16.1 61 16.1 100 100 ESE 5 7 30.14 1021 10 16.0934 0 0
8:56 am 08:56 Sunny 68 20 61 16.1 78 78 SE 6 9 30.12 1020 10 16.0934 0 0
9:56 am 09:56 Sunny 72 22.2 62 16.7 71 71 S 3 6 30.14 1021 10 16.0934 0 0
10:56 am 10:56 Sunny 74 23.3 62 16.7 67 67 S 5 7 30.14 1021 10 16.0934 0 0
11:56 am 11:56 Sunny 75 23.9 62 16.7 64 64 S 7 11 30.14 1021 10 16.0934 0 0
12:56 pm 12:56 Sunny 76 24.4 63 17.2 64 64 VRB 5 7 30.14 1021 10 16.0934 0 0
1:56 pm 13:56 Sunny 76 24.4 62 16.7 62 62 VRB 5 7 30.13 1020 10 16.0934 0 0
2:56 pm 14:56 Sunny 78 25.6 63 17.2 60 60 S 6 9 30.11 1020 10 16.0934 0 0
3:56 pm 15:56 Sunny 75 23.9 62 16.7 64 64 SSW 3 6 30.11 1020 10 16.0934 0 0
4:56 pm 16:56 Sunny 75 23.9 62 16.7 64 64 Calm 30.1 1019 10 16.0934 0 0
5:56 pm 17:56 Sunny 75 23.9 63 17.2 66 66 NNW 5 7 30.09 1019 10 16.0934 0 0
6:56 pm 18:56 Sunny 74 23.3 64 17.8 71 71 N 8 13 30.09 1019 10 16.0934 0 0
7:56 pm 19:56 Sunny 73 22.8 63 17.2 71 71 NNE 7 11 30.09 1019 10 16.0934 0 0
8:56 pm 20:56 Clear 69 20.6 63 17.2 81 81 ENE 5 7 30.09 1019 10 16.0934 0 0
9:56 pm 21:56 Mostly Clear with Light Rain 68 20 65 18.3 90 90 ENE 5 7 30.1 1019 10 16.0934 0 0.0254
10:56 pm 22:56 Mostly Clear with Light Rain 68 20 66 18.9 93 93 NNE 6 9 30.12 1020 10 16.0934 0 0.0254
11:56 pm 23:56 Mostly Clear with Light Rain 67 19.4 66 18.9 97 97 NNE 7 11 30.12 1020 10 16.0934 0.01 0.254

Powered by AerisWeather